createdAt,value
2022-11-26T00:00:47.111Z,7.56
2022-11-26T00:03:29.890Z,7.56
2022-11-26T00:05:57.426Z,7.62
2022-11-26T00:08:34.711Z,7.58
2022-11-26T00:11:01.976Z,7.55
2022-11-26T00:13:30.301Z,7.43
2022-11-26T00:15:56.988Z,7.57
2022-11-26T00:18:25.806Z,7.51
2022-11-26T00:20:58.972Z,7.70
2022-11-26T00:23:27.695Z,7.84
2022-11-26T00:25:57.527Z,7.93
2022-11-26T00:28:23.674Z,7.92
2022-11-26T00:30:50.183Z,7.74
2022-11-26T00:33:16.204Z,7.74
2022-11-26T00:35:42.644Z,7.69
2022-11-26T00:38:15.968Z,7.60
2022-11-26T00:40:42.493Z,7.62
2022-11-26T00:43:13.167Z,7.58
2022-11-26T00:45:39.913Z,7.60
2022-11-26T00:48:06.223Z,7.47
2022-11-26T00:50:38.210Z,7.50
2022-11-26T00:53:05.704Z,7.59
2022-11-26T00:55:44.393Z,7.67
2022-11-26T00:58:26.288Z,7.66
2022-11-26T01:00:55.004Z,7.85
2022-11-26T01:03:21.498Z,7.73
2022-11-26T01:05:56.659Z,7.72
2022-11-26T01:08:40.957Z,7.87
2022-11-26T01:11:11.934Z,7.77
2022-11-26T01:13:38.127Z,7.65
2022-11-26T01:16:15.573Z,7.67
2022-11-26T01:18:41.720Z,7.59
2022-11-26T01:21:11.272Z,7.54
2022-11-26T01:23:38.369Z,7.64
2022-11-26T01:26:06.679Z,7.51
2022-11-26T01:28:32.898Z,7.47
2022-11-26T01:30:59.245Z,7.39
2022-11-26T01:33:25.335Z,7.46
2022-11-26T01:35:51.707Z,7.42
2022-11-26T01:38:17.917Z,7.47
2022-11-26T01:41:00.257Z,7.38
2022-11-26T01:43:31.984Z,7.43
2022-11-26T01:45:58.571Z,7.37
2022-11-26T01:48:33.391Z,7.45
2022-11-26T01:51:08.097Z,7.39
2022-11-26T01:54:00.376Z,7.37
2022-11-26T01:56:41.473Z,7.36
2022-11-26T01:59:18.439Z,7.43
2022-11-26T02:01:45.191Z,7.41
2022-11-26T02:04:16.627Z,7.32
2022-11-26T02:06:46.046Z,7.38
2022-11-26T02:09:12.291Z,7.50
2022-11-26T02:11:39.392Z,7.51
2022-11-26T02:14:09.824Z,7.53
2022-11-26T02:16:39.142Z,7.49
2022-11-26T02:19:21.646Z,7.52
2022-11-26T02:21:55.552Z,7.53
2022-11-26T02:24:45.277Z,7.50
2022-11-26T02:27:17.957Z,7.46
2022-11-26T02:29:56.230Z,7.43
2022-11-26T02:32:29.391Z,7.33
2022-11-26T02:35:03.901Z,7.41
2022-11-26T02:37:47.695Z,7.38
2022-11-26T02:40:14.603Z,7.38
2022-11-26T02:42:41.573Z,7.32
2022-11-26T02:45:13.725Z,7.29
2022-11-26T02:47:44.160Z,7.43
2022-11-26T02:50:18.179Z,7.49
2022-11-26T02:52:48.292Z,7.49
2022-11-26T02:55:16.006Z,7.48
2022-11-26T02:57:47.054Z,7.38
2022-11-26T03:00:14.712Z,7.46
2022-11-26T03:02:53.707Z,7.45
2022-11-26T03:05:20.393Z,7.59
2022-11-26T03:07:50.794Z,7.43
2022-11-26T03:10:19.528Z,7.50
2022-11-26T03:12:46.815Z,7.49
2022-11-26T03:15:13.096Z,7.51
2022-11-26T03:17:39.517Z,7.66
2022-11-26T03:20:06.517Z,7.73
2022-11-26T03:22:33.100Z,7.70
2022-11-26T03:24:59.249Z,7.64
2022-11-26T03:27:25.656Z,7.79
2022-11-26T03:29:51.779Z,7.69
2022-11-26T03:32:18.193Z,7.59
2022-11-26T03:34:44.260Z,7.55
2022-11-26T03:37:10.817Z,7.52
2022-11-26T03:39:36.947Z,7.39
2022-11-26T03:42:03.513Z,7.44
2022-11-26T03:44:29.655Z,7.49
2022-11-26T03:46:56.001Z,7.54
2022-11-26T03:49:22.069Z,7.60
2022-11-26T03:51:48.466Z,7.49
2022-11-26T03:54:14.752Z,7.40
2022-11-26T03:56:41.195Z,7.29
2022-11-26T03:59:07.356Z,7.48
2022-11-26T04:01:33.873Z,7.39
2022-11-26T04:04:00.092Z,7.39
2022-11-26T04:06:26.454Z,7.32
2022-11-26T04:08:52.652Z,7.37
2022-11-26T04:11:19.122Z,7.39
2022-11-26T04:13:45.258Z,7.45
2022-11-26T04:16:11.812Z,7.46
2022-11-26T04:18:37.992Z,7.39
2022-11-26T04:21:07.470Z,7.51
2022-11-26T04:23:34.737Z,7.55
2022-11-26T04:26:01.376Z,7.53
2022-11-26T04:28:28.703Z,7.58
2022-11-26T04:30:55.082Z,7.48
2022-11-26T04:33:21.265Z,7.42
2022-11-26T04:35:49.699Z,7.39
2022-11-26T04:38:15.861Z,7.45
2022-11-26T04:40:42.670Z,7.38
2022-11-26T04:43:09.017Z,7.55
2022-11-26T04:45:35.411Z,7.53
2022-11-26T04:48:01.671Z,7.43
2022-11-26T04:50:28.164Z,7.35
2022-11-26T04:52:54.256Z,7.42
2022-11-26T04:55:20.660Z,7.43
2022-11-26T04:57:47.864Z,7.48
2022-11-26T05:00:15.995Z,7.44
2022-11-26T05:02:42.428Z,7.26
2022-11-26T05:05:09.218Z,7.34
2022-11-26T05:07:35.609Z,7.33
2022-11-26T05:10:05.698Z,7.35
2022-11-26T05:12:31.953Z,7.31
2022-11-26T05:14:58.359Z,7.37
2022-11-26T05:17:24.474Z,7.20
2022-11-26T05:19:50.870Z,7.25
2022-11-26T05:22:17.052Z,7.19
2022-11-26T05:24:43.564Z,7.27
2022-11-26T05:27:09.807Z,7.19
2022-11-26T05:29:36.368Z,7.13
2022-11-26T05:32:02.686Z,7.03
2022-11-26T05:34:29.525Z,7.03
2022-11-26T05:36:55.865Z,7.05
2022-11-26T05:39:22.423Z,7.13
2022-11-26T05:41:48.606Z,7.08
2022-11-26T05:44:15.203Z,7.11
2022-11-26T05:46:42.516Z,7.08
2022-11-26T05:49:09.312Z,7.05
2022-11-26T05:51:35.523Z,7.04
2022-11-26T05:54:02.647Z,7.03
2022-11-26T05:56:29.153Z,7.08
2022-11-26T05:58:55.752Z,7.05
2022-11-26T06:01:22.183Z,7.06
2022-11-26T06:03:48.846Z,7.15
2022-11-26T06:06:15.162Z,7.10
2022-11-26T06:08:41.646Z,7.24
2022-11-26T06:11:11.706Z,7.24
2022-11-26T06:13:39.008Z,7.19
2022-11-26T06:16:05.667Z,7.23
2022-11-26T06:18:32.094Z,7.18
2022-11-26T06:21:03.120Z,7.17
2022-11-26T06:23:31.375Z,7.12
2022-11-26T06:25:57.657Z,7.25
2022-11-26T06:28:24.118Z,7.22
2022-11-26T06:30:50.525Z,7.13
2022-11-26T06:33:17.206Z,7.13
2022-11-26T06:35:43.527Z,7.11
2022-11-26T06:38:10.329Z,7.21
2022-11-26T06:40:36.754Z,7.17
2022-11-26T06:43:03.280Z,7.14
2022-11-26T06:45:30.247Z,7.16
2022-11-26T06:47:57.106Z,7.12
2022-11-26T06:50:23.233Z,7.13
2022-11-26T06:52:53.791Z,7.10
2022-11-26T06:55:21.204Z,7.17
2022-11-26T06:57:51.837Z,7.10
2022-11-26T07:00:18.522Z,7.19
2022-11-26T07:02:45.982Z,7.23
2022-11-26T07:05:13.114Z,7.31
2022-11-26T07:07:40.044Z,7.22
2022-11-26T07:10:07.565Z,7.32
2022-11-26T07:12:34.065Z,7.31
2022-11-26T07:15:00.603Z,7.20
2022-11-26T07:17:28.127Z,7.22
2022-11-26T07:19:55.160Z,7.28
2022-11-26T07:22:22.215Z,7.21
2022-11-26T07:24:48.662Z,7.09
2022-11-26T07:27:15.113Z,7.16
2022-11-26T07:29:41.840Z,7.11
2022-11-26T07:32:08.525Z,7.20
2022-11-26T07:34:35.196Z,7.32
2022-11-26T07:37:01.849Z,7.36
2022-11-26T07:39:28.239Z,7.47
2022-11-26T07:41:54.974Z,7.44
2022-11-26T07:44:21.371Z,7.39
2022-11-26T07:46:47.996Z,7.37
2022-11-26T07:49:14.213Z,7.33
2022-11-26T07:51:41.370Z,7.40
2022-11-26T07:54:07.889Z,7.35
2022-11-26T07:56:35.114Z,7.32
2022-11-26T07:59:01.870Z,7.26
2022-11-26T08:01:29.142Z,7.33
2022-11-26T08:03:56.688Z,7.36
2022-11-26T08:06:28.193Z,7.35
2022-11-26T08:08:55.251Z,7.44
2022-11-26T08:11:24.487Z,7.21
2022-11-26T08:13:59.693Z,7.33
2022-11-26T08:16:29.119Z,7.37
2022-11-26T08:18:57.884Z,7.42
2022-11-26T08:21:25.469Z,7.40
2022-11-26T08:23:53.390Z,7.43
2022-11-26T08:26:25.103Z,7.64
2022-11-26T08:28:58.233Z,7.48
2022-11-26T08:31:26.790Z,7.47
2022-11-26T08:33:56.777Z,7.61
2022-11-26T08:36:23.429Z,7.61
2022-11-26T08:38:50.079Z,7.64
2022-11-26T08:41:16.863Z,7.63
2022-11-26T08:46:30.612Z,7.89
2022-11-26T08:48:57.730Z,7.84
2022-11-26T08:51:24.696Z,7.81
2022-11-26T08:53:51.207Z,7.72
2022-11-26T08:56:17.976Z,7.63
2022-11-26T08:58:45.107Z,7.61
2022-11-26T09:01:13.948Z,7.73
2022-11-26T09:03:40.309Z,7.61
2022-11-26T09:06:08.017Z,7.68
2022-11-26T09:08:55.466Z,7.74
2022-11-26T09:11:22.993Z,7.68
2022-11-26T09:13:49.164Z,7.76
2022-11-26T09:16:19.943Z,7.72
2022-11-26T09:18:50.651Z,7.59
2022-11-26T09:21:18.794Z,7.62
2022-11-26T09:23:46.432Z,7.79
2022-11-26T09:26:13.357Z,7.83
2022-11-26T09:28:42.075Z,7.84
2022-11-26T09:31:16.976Z,7.75
2022-11-26T09:33:55.135Z,7.78
2022-11-26T09:36:22.076Z,7.75
2022-11-26T09:38:48.269Z,7.94
2022-11-26T09:41:33.243Z,8.01
2022-11-26T09:44:18.188Z,8.03
2022-11-26T09:47:13.589Z,7.86
2022-11-26T09:50:16.823Z,7.78
2022-11-26T09:53:03.583Z,7.74
2022-11-26T09:55:53.525Z,7.59
2022-11-26T09:58:26.989Z,7.77
2022-11-26T10:00:59.388Z,7.97
2022-11-26T10:03:37.175Z,7.97
2022-11-26T10:06:29.247Z,7.70
2022-11-26T10:09:16.257Z,7.69
2022-11-26T10:12:24.920Z,7.79
2022-11-26T10:15:19.850Z,7.65
2022-11-26T10:18:17.379Z,7.56
2022-11-26T10:21:02.075Z,7.58
2022-11-26T10:23:44.815Z,7.52
2022-11-26T10:26:23.296Z,7.53
2022-11-26T10:28:59.048Z,7.55
2022-11-26T10:31:30.480Z,7.56
2022-11-26T10:34:04.389Z,7.50
2022-11-26T10:36:38.641Z,7.64
2022-11-26T10:39:06.644Z,7.84
2022-11-26T10:41:35.283Z,7.74
2022-11-26T10:44:34.055Z,7.75
2022-11-26T10:47:20.979Z,7.76
2022-11-26T10:49:48.757Z,7.94
2022-11-26T10:52:20.277Z,7.84
2022-11-26T10:54:46.689Z,7.95
2022-11-26T10:57:21.179Z,7.92
2022-11-26T10:59:51.343Z,7.73
2022-11-26T11:02:38.765Z,7.75
2022-11-26T11:05:08.301Z,7.74
2022-11-26T11:07:37.955Z,7.80
2022-11-26T11:10:07.719Z,7.61
2022-11-26T11:12:35.721Z,7.58
2022-11-26T11:15:17.260Z,7.62
2022-11-26T11:17:45.762Z,7.68
2022-11-26T11:20:15.249Z,7.79
2022-11-26T11:22:43.790Z,7.78
2022-11-26T11:25:24.599Z,7.70
2022-11-26T11:27:53.810Z,7.87
2022-11-26T11:30:24.846Z,7.75
2022-11-26T11:32:56.644Z,7.73
2022-11-26T11:35:30.342Z,7.78
2022-11-26T11:37:58.092Z,7.95
2022-11-26T11:40:28.413Z,7.93
2022-11-26T11:43:06.354Z,7.99
2022-11-26T11:45:34.196Z,8.11
2022-11-26T11:48:15.640Z,8.14
2022-11-26T11:50:49.477Z,8.12
2022-11-26T11:53:32.586Z,8.11
2022-11-26T11:56:16.751Z,8.13
2022-11-26T11:59:07.971Z,8.13
2022-11-26T12:02:00.168Z,8.25
2022-11-26T12:04:48.674Z,8.19
2022-11-26T12:07:51.943Z,8.14
2022-11-26T12:10:35.765Z,8.26
2022-11-26T12:13:06.381Z,8.53
2022-11-26T12:15:54.647Z,8.71
2022-11-26T12:18:46.065Z,8.57
2022-11-26T12:21:15.716Z,8.68
2022-11-26T12:23:56.148Z,8.62
2022-11-26T12:26:42.054Z,8.54
2022-11-26T12:29:41.213Z,8.72
2022-11-26T12:32:16.641Z,8.75
2022-11-26T12:34:52.086Z,8.70
2022-11-26T12:37:23.495Z,8.62
2022-11-26T12:40:07.338Z,8.65
2022-11-26T12:42:48.743Z,8.48
2022-11-26T12:45:38.268Z,8.42
2022-11-26T12:48:41.707Z,8.43
2022-11-26T12:51:19.784Z,8.15
2022-11-26T12:54:04.589Z,8.05
2022-11-26T12:56:33.989Z,8.04
2022-11-26T12:59:17.566Z,8.20
2022-11-26T13:01:44.008Z,8.08
2022-11-26T13:07:03.265Z,8.00
2022-11-26T13:10:00.406Z,7.96
2022-11-26T13:12:41.752Z,7.90
2022-11-26T13:15:57.784Z,7.93
2022-11-26T13:18:38.120Z,7.99
2022-11-26T13:21:38.564Z,8.07
2022-11-26T13:24:04.913Z,8.15
2022-11-26T13:26:53.495Z,8.20
2022-11-26T13:29:35.152Z,8.23
2022-11-26T13:32:26.568Z,8.29
2022-11-26T13:34:55.714Z,8.14
2022-11-26T13:37:24.968Z,8.20
2022-11-26T13:40:06.517Z,7.96
2022-11-26T13:42:52.457Z,7.91
2022-11-26T13:45:43.244Z,7.82
2022-11-26T13:48:19.967Z,7.79
2022-11-26T13:50:58.999Z,7.80
2022-11-26T13:53:42.248Z,7.82
2022-11-26T13:56:10.863Z,7.85
2022-11-26T13:58:51.403Z,7.78
2022-11-26T14:01:36.161Z,7.73
2022-11-26T14:04:07.104Z,7.77
2022-11-26T14:06:34.440Z,7.84
2022-11-26T14:09:01.115Z,7.93
2022-11-26T14:11:39.845Z,8.18
2022-11-26T14:14:24.618Z,8.14
2022-11-26T14:17:12.782Z,8.22
2022-11-26T14:19:39.272Z,8.34
2022-11-26T14:22:33.470Z,8.53
2022-11-26T14:25:42.877Z,8.39
2022-11-26T14:28:09.168Z,8.26
2022-11-26T14:30:35.738Z,8.28
2022-11-26T14:33:11.148Z,8.41
2022-11-26T14:35:39.191Z,8.34
2022-11-26T14:38:21.584Z,8.43
2022-11-26T14:41:00.887Z,8.50
2022-11-26T14:43:28.293Z,8.46
2022-11-26T14:46:15.769Z,8.47
2022-11-26T14:48:45.703Z,8.43
2022-11-26T14:51:22.383Z,8.35
2022-11-26T14:53:50.123Z,8.27
2022-11-26T14:56:19.191Z,8.20
2022-11-26T14:58:51.028Z,8.06
2022-11-26T15:01:23.789Z,8.00
2022-11-26T15:03:54.658Z,7.87
2022-11-26T15:06:42.212Z,7.76
2022-11-26T15:09:15.756Z,7.68
2022-11-26T15:11:47.406Z,7.74
2022-11-26T15:14:25.906Z,7.83
2022-11-26T15:16:55.934Z,7.94
2022-11-26T15:19:22.773Z,8.14
2022-11-26T15:21:51.395Z,8.18
2022-11-26T15:24:17.772Z,8.35
2022-11-26T15:26:45.852Z,8.26
2022-11-26T15:29:35.901Z,8.25
2022-11-26T15:32:03.925Z,8.27
2022-11-26T15:34:32.209Z,8.28
2022-11-26T15:36:59.317Z,8.35
2022-11-26T15:39:30.636Z,8.29
2022-11-26T15:42:03.279Z,8.25
2022-11-26T15:44:31.254Z,8.27
2022-11-26T15:47:00.186Z,8.25
2022-11-26T15:49:39.592Z,8.17
2022-11-26T15:52:10.760Z,8.22
2022-11-26T15:57:32.182Z,8.26
2022-11-26T16:00:27.587Z,8.26
2022-11-26T16:02:54.342Z,8.24
2022-11-26T16:05:38.118Z,8.32
2022-11-26T16:08:22.552Z,8.32
2022-11-26T16:10:57.045Z,8.31
2022-11-26T16:13:31.860Z,8.32
2022-11-26T16:16:09.556Z,8.34
2022-11-26T16:18:53.274Z,8.41
2022-11-26T16:21:23.614Z,8.42
2022-11-26T16:24:04.841Z,8.53
2022-11-26T16:26:53.123Z,8.46
2022-11-26T16:29:19.594Z,8.44
2022-11-26T16:31:46.719Z,8.34
2022-11-26T16:34:13.119Z,8.23
2022-11-26T16:36:41.520Z,8.14
2022-11-26T16:39:10.998Z,8.15
2022-11-26T16:41:38.628Z,8.00
2022-11-26T16:44:05.129Z,8.02
2022-11-26T16:46:35.254Z,8.02
2022-11-26T16:49:03.984Z,7.97
2022-11-26T16:51:30.368Z,7.98
2022-11-26T16:53:57.053Z,8.07
2022-11-26T16:56:36.704Z,8.03
2022-11-26T16:59:18.665Z,8.09
2022-11-26T17:01:45.175Z,8.14
2022-11-26T17:04:13.153Z,8.14
2022-11-26T17:06:40.621Z,8.17
2022-11-26T17:09:16.942Z,8.14
2022-11-26T17:11:43.432Z,8.15
2022-11-26T17:14:10.945Z,8.14
2022-11-26T17:16:39.596Z,8.18
2022-11-26T17:19:13.694Z,8.28
2022-11-26T17:21:41.378Z,8.26
2022-11-26T17:24:08.151Z,8.25
2022-11-26T17:26:34.544Z,8.34
2022-11-26T17:29:01.499Z,8.27
2022-11-26T17:31:29.070Z,8.26
2022-11-26T17:33:57.190Z,8.18
2022-11-26T17:36:23.754Z,8.31
2022-11-26T17:38:50.953Z,8.36
2022-11-26T17:41:18.969Z,8.24
2022-11-26T17:43:45.648Z,8.27
2022-11-26T17:46:18.544Z,8.13
2022-11-26T17:48:46.447Z,8.08
2022-11-26T17:51:15.311Z,8.00
2022-11-26T17:53:43.277Z,7.97
2022-11-26T17:56:17.822Z,7.97
2022-11-26T17:58:46.723Z,7.96
2022-11-26T18:01:15.467Z,7.96
2022-11-26T18:03:42.973Z,7.93
2022-11-26T18:06:33.751Z,7.95
2022-11-26T18:09:00.371Z,8.08
2022-11-26T18:11:52.058Z,8.19
2022-11-26T18:14:20.873Z,8.23
2022-11-26T18:16:47.737Z,8.15
2022-11-26T18:19:18.079Z,8.14
2022-11-26T18:21:45.310Z,8.08
2022-11-26T18:24:13.184Z,8.07
2022-11-26T18:26:40.031Z,8.00
2022-11-26T18:29:07.302Z,8.04
2022-11-26T18:31:39.086Z,8.01
2022-11-26T18:34:08.209Z,7.99
2022-11-26T18:36:34.558Z,7.95
2022-11-26T18:39:03.710Z,7.94
2022-11-26T18:41:30.679Z,7.93
2022-11-26T18:43:57.438Z,7.87
2022-11-26T18:46:23.871Z,7.88
2022-11-26T18:48:50.512Z,7.83
2022-11-26T18:51:17.984Z,7.81
2022-11-26T18:53:44.767Z,7.87
2022-11-26T18:56:14.863Z,7.85
2022-11-26T18:58:45.559Z,7.82
2022-11-26T19:01:16.748Z,7.79
2022-11-26T19:03:44.470Z,7.88
2022-11-26T19:06:16.696Z,7.96
2022-11-26T19:08:44.064Z,8.15
2022-11-26T19:11:13.285Z,8.05
2022-11-26T19:13:40.243Z,8.22
2022-11-26T19:16:13.034Z,8.14
2022-11-26T19:18:44.244Z,8.06
2022-11-26T19:21:24.470Z,7.99
2022-11-26T19:23:52.758Z,7.96
2022-11-26T19:26:20.147Z,8.06
2022-11-26T19:28:47.084Z,8.01
2022-11-26T19:31:16.276Z,8.04
2022-11-26T19:33:45.847Z,8.10
2022-11-26T19:36:15.619Z,8.12
2022-11-26T19:38:45.058Z,8.17
2022-11-26T19:41:12.689Z,8.11
2022-11-26T19:43:41.691Z,8.13
2022-11-26T19:46:13.964Z,8.16
2022-11-26T19:48:42.890Z,8.25
2022-11-26T19:51:10.931Z,8.11
2022-11-26T19:53:37.913Z,8.11
2022-11-26T19:56:11.866Z,8.09
2022-11-26T19:58:38.537Z,8.06
2022-11-26T20:01:06.878Z,8.05
2022-11-26T20:03:37.507Z,8.10
2022-11-26T20:06:07.202Z,7.97
2022-11-26T20:08:36.959Z,8.08
2022-11-26T20:11:05.377Z,8.04
2022-11-26T20:13:35.449Z,8.04
2022-11-26T20:16:07.004Z,8.04
2022-11-26T20:18:37.265Z,8.00
2022-11-26T20:21:07.291Z,7.97
2022-11-26T20:23:34.007Z,7.98
2022-11-26T20:26:01.420Z,8.02
2022-11-26T20:28:28.557Z,7.99
2022-11-26T20:30:55.405Z,8.00
2022-11-26T20:33:22.382Z,7.98
2022-11-26T20:35:49.514Z,7.97
2022-11-26T20:38:17.064Z,7.93
2022-11-26T20:40:44.985Z,7.97
2022-11-26T20:43:12.403Z,8.00
2022-11-26T20:45:39.234Z,8.16
2022-11-26T20:48:06.254Z,8.01
2022-11-26T20:50:36.904Z,8.03
2022-11-26T20:53:05.056Z,8.04
2022-11-26T20:55:31.887Z,8.06
2022-11-26T20:57:59.186Z,8.03
2022-11-26T21:00:27.677Z,8.06
2022-11-26T21:02:54.653Z,8.12
2022-11-26T21:05:22.531Z,8.06
2022-11-26T21:07:51.308Z,8.05
2022-11-26T21:10:20.692Z,7.97
2022-11-26T21:12:47.448Z,7.97
2022-11-26T21:15:15.040Z,8.01
2022-11-26T21:17:41.547Z,7.98
2022-11-26T21:20:08.685Z,8.01
2022-11-26T21:22:36.898Z,8.05
2022-11-26T21:25:03.228Z,8.04
2022-11-26T21:27:32.998Z,8.04
2022-11-26T21:29:59.192Z,8.07
2022-11-26T21:32:25.726Z,8.03
2022-11-26T21:34:52.573Z,8.06
2022-11-26T21:37:20.225Z,8.03
2022-11-26T21:39:46.881Z,8.01
2022-11-26T21:42:13.728Z,8.18
2022-11-26T21:44:39.934Z,8.24
2022-11-26T21:47:07.745Z,8.24
2022-11-26T21:49:35.200Z,8.17
2022-11-26T21:52:02.452Z,8.22
2022-11-26T21:54:28.904Z,8.11
2022-11-26T21:56:55.570Z,8.10
2022-11-26T21:59:21.722Z,8.12
2022-11-26T22:01:49.067Z,8.09
2022-11-26T22:04:18.096Z,8.06
2022-11-26T22:06:47.016Z,8.13
2022-11-26T22:09:15.512Z,8.16
2022-11-26T22:11:44.282Z,8.18
2022-11-26T22:14:14.183Z,8.11
2022-11-26T22:16:41.566Z,8.18
2022-11-26T22:19:10.539Z,8.16
2022-11-26T22:21:39.624Z,8.20
2022-11-26T22:24:09.185Z,8.13
2022-11-26T22:26:35.992Z,8.09
2022-11-26T22:29:03.433Z,8.15
2022-11-26T22:31:32.942Z,8.21
2022-11-26T22:34:02.792Z,8.13
2022-11-26T22:36:29.969Z,8.31
2022-11-26T22:38:57.932Z,8.26
2022-11-26T22:41:25.216Z,8.33
2022-11-26T22:43:51.728Z,8.37
2022-11-26T22:46:20.335Z,8.42
2022-11-26T22:48:55.272Z,8.26
2022-11-26T22:51:23.598Z,8.25
2022-11-26T22:53:52.733Z,8.38
2022-11-26T22:56:20.077Z,8.30
2022-11-26T22:58:46.698Z,8.24
2022-11-26T23:01:33.608Z,8.27
2022-11-26T23:04:01.602Z,8.24
2022-11-26T23:06:29.685Z,8.25
2022-11-26T23:08:57.861Z,8.41
2022-11-26T23:11:34.385Z,8.24
2022-11-26T23:14:06.454Z,8.16
2022-11-26T23:16:34.157Z,8.11
2022-11-26T23:19:00.366Z,8.28
2022-11-26T23:21:39.369Z,8.11
2022-11-26T23:24:06.690Z,8.14
2022-11-26T23:26:35.358Z,8.08
2022-11-26T23:29:03.510Z,8.04
2022-11-26T23:31:38.393Z,8.01
2022-11-26T23:34:05.853Z,8.03
2022-11-26T23:36:33.293Z,8.04
2022-11-26T23:39:01.200Z,8.00
2022-11-26T23:41:28.534Z,8.02
2022-11-26T23:43:55.441Z,7.99
2022-11-26T23:46:24.870Z,8.04
2022-11-26T23:48:51.825Z,8.23
2022-11-26T23:51:23.989Z,8.10
2022-11-26T23:53:50.993Z,8.20
2022-11-26T23:56:21.372Z,8.17
2022-11-26T23:58:49.301Z,8.25
